Time;durP1;ratioP1;P1;durP2;ratioP2;P2;SDS_P1;SDS_P2;PMS_P1;PMS_P2;Temp;Humidity;BMP_temperature;BMP_pressure;BME280_temperature;BME280_humidity;BME280_pressure;Samples;Min_cycle;Max_cycle;Signal;HPM_P1;HPM_P2
2021/07/19 00:00:06;;;;;;;5.27;4.87;;;22.20;99.90;;;;;;6326860;28;20306;-61
2021/07/19 00:03:09;;;;;;;7.03;5.83;;;22.20;99.90;;;;;;6334040;28;20217;-61
2021/07/19 00:06:13;;;;;;;6.43;5.83;;;22.30;99.90;;;;;;6351712;27;20312;-61
2021/07/19 00:09:16;;;;;;;6.57;5.97;;;22.30;99.90;;;;;;6351764;27;20225;-61
2021/07/19 00:12:21;;;;;;;5.90;5.00;;;22.30;99.90;;;;;;6351952;27;20236;-61
2021/07/19 00:15:27;;;;;;;5.83;4.93;;;22.30;99.90;;;;;;6343698;27;20226;-61
2021/07/19 00:18:30;;;;;;;5.43;5.03;;;22.30;99.90;;;;;;6324120;28;20241;-60
2021/07/19 00:21:33;;;;;;;6.43;5.40;;;22.30;99.90;;;;;;6310510;28;20691;-61
2021/07/19 00:24:37;;;;;;;6.27;5.70;;;22.30;99.90;;;;;;6299597;28;20249;-61
2021/07/19 00:27:42;;;;;;;5.87;5.37;;;22.30;99.90;;;;;;6295498;28;20253;-60
2021/07/19 00:30:46;;;;;;;5.73;4.97;;;22.20;99.90;;;;;;6299553;28;20234;-61
2021/07/19 00:33:50;;;;;;;6.63;5.93;;;22.20;99.90;;;;;;6308679;28;20222;-60
2021/07/19 00:36:54;;;;;;;5.87;5.33;;;22.10;99.90;;;;;;6342638;28;20229;-60
2021/07/19 00:39:57;;;;;;;6.27;5.57;;;22.10;99.90;;;;;;6332511;27;20226;-62
2021/07/19 00:43:02;;;;;;;8.40;6.83;;;22.10;99.90;;;;;;6325677;28;20222;-61
2021/07/19 00:46:06;;;;;;;6.60;6.10;;;22.10;99.90;;;;;;6324704;28;20241;-62
2021/07/19 00:49:10;;;;;;;6.47;5.80;;;22.10;99.90;;;;;;6325232;28;20249;-61
2021/07/19 00:52:14;;;;;;;7.53;6.03;;;22.00;99.90;;;;;;6325302;28;20226;-61
2021/07/19 00:55:19;;;;;;;6.63;6.07;;;22.00;99.90;;;;;;6325234;28;20238;-62
2021/07/19 00:58:28;;;;;;;5.97;5.37;;;21.90;99.90;;;;;;6325371;28;20226;-62
2021/07/19 01:01:32;;;;;;;6.93;5.70;;;22.00;99.90;;;;;;6323871;28;20241;-62
2021/07/19 01:04:37;;;;;;;6.80;5.93;;;21.90;99.90;;;;;;6324710;28;20326;-62
2021/07/19 01:07:41;;;;;;;6.80;5.97;;;21.80;99.90;;;;;;6324694;28;20226;-62
2021/07/19 01:10:44;;;;;;;8.30;6.63;;;21.80;99.90;;;;;;6325220;28;20237;-62
2021/07/19 01:13:49;;;;;;;7.33;6.30;;;21.80;99.90;;;;;;6324974;28;20233;-61
2021/07/19 01:16:53;;;;;;;7.00;6.30;;;21.80;99.90;;;;;;6322788;28;20734;-64
2021/07/19 01:19:56;;;;;;;6.70;6.20;;;21.80;99.90;;;;;;6346512;28;20682;-64
2021/07/19 01:23:38;;;;;;;7.00;6.40;;;21.80;99.90;;;;;;6322480;28;20633;-64
2021/07/19 01:27:00;;;;;;;6.60;5.90;;;21.80;99.90;;;;;;6321861;28;20244;-64
2021/07/19 01:30:08;;;;;;;7.50;6.03;;;21.80;99.90;;;;;;6323358;28;20231;-62
2021/07/19 01:33:13;;;;;;;6.93;6.33;;;21.80;99.90;;;;;;6336676;28;20591;-68
2021/07/19 01:36:20;;;;;;;7.40;6.30;;;21.90;99.90;;;;;;6321131;28;20299;-68
2021/07/19 01:39:25;;;;;;;6.90;6.20;;;21.80;99.90;;;;;;6337121;28;20864;-67
2021/07/19 01:42:28;;;;;;;7.03;5.63;;;21.80;99.90;;;;;;6333910;28;20233;-67
2021/07/19 01:45:33;;;;;;;7.10;6.33;;;21.80;99.90;;;;;;6323099;28;20237;-67
2021/07/19 01:48:37;;;;;;;6.30;5.70;;;21.80;99.90;;;;;;6324604;28;20218;-61
2021/07/19 01:51:41;;;;;;;7.10;6.10;;;21.80;99.90;;;;;;6324357;28;20246;-65
2021/07/19 01:54:45;;;;;;;6.57;5.97;;;21.90;99.90;;;;;;6324626;28;20233;-65
2021/07/19 01:57:49;;;;;;;9.10;6.90;;;21.80;99.90;;;;;;6324454;28;20246;-63
2021/07/19 02:00:54;;;;;;;7.20;6.50;;;21.80;99.90;;;;;;6324300;28;20575;-64
2021/07/19 02:03:58;;;;;;;6.67;6.07;;;21.80;99.90;;;;;;6324128;28;20271;-64
2021/07/19 02:07:02;;;;;;;6.80;6.20;;;21.80;99.90;;;;;;6323361;28;20584;-64
2021/07/19 02:10:08;;;;;;;7.20;6.50;;;21.80;99.90;;;;;;6323951;28;20226;-63
2021/07/19 02:13:13;;;;;;;7.20;6.67;;;21.70;99.90;;;;;;6324211;28;20588;-64
2021/07/19 02:16:18;;;;;;;6.77;6.17;;;21.70;99.90;;;;;;6323771;28;20246;-68
2021/07/19 02:19:24;;;;;;;7.47;6.67;;;21.80;99.90;;;;;;6324411;28;20267;-64
2021/07/19 02:22:27;;;;;;;8.70;6.33;;;21.70;99.90;;;;;;6324468;28;20230;-69
2021/07/19 02:25:32;;;;;;;7.00;6.30;;;21.70;99.90;;;;;;6323723;28;20238;-64
2021/07/19 02:28:36;;;;;;;7.47;6.77;;;21.70;99.90;;;;;;6324196;28;20233;-64
2021/07/19 02:31:42;;;;;;;7.03;6.33;;;21.70;99.90;;;;;;6323683;28;20233;-61
2021/07/19 02:34:46;;;;;;;6.93;6.30;;;21.70;99.90;;;;;;6314981;28;20245;-68
2021/07/19 02:37:52;;;;;;;6.60;5.60;;;21.70;99.90;;;;;;6324408;28;20228;-66
2021/07/19 02:40:56;;;;;;;6.43;5.90;;;21.80;99.90;;;;;;6324023;28;20589;-67
2021/07/19 02:44:03;;;;;;;7.60;6.87;;;21.80;99.90;;;;;;6323649;28;20205;-64
2021/07/19 02:47:08;;;;;;;9.97;6.80;;;21.70;99.90;;;;;;6324138;28;20202;-63
2021/07/19 02:50:14;;;;;;;9.70;6.93;;;21.80;99.90;;;;;;6324063;28;20226;-61
2021/07/19 02:53:19;;;;;;;9.03;7.27;;;21.80;99.90;;;;;;6323782;28;20714;-68
2021/07/19 02:56:23;;;;;;;7.17;6.57;;;21.70;99.90;;;;;;6324018;28;20237;-61
2021/07/19 02:59:27;;;;;;;8.50;6.63;;;21.70;99.90;;;;;;6323326;28;20683;-64
2021/07/19 03:02:32;;;;;;;9.47;7.43;;;21.70;99.90;;;;;;6323871;28;20230;-61
2021/07/19 03:05:38;;;;;;;8.10;7.10;;;21.60;99.90;;;;;;6323396;28;20234;-65
2021/07/19 03:08:43;;;;;;;7.83;7.03;;;21.70;99.90;;;;;;6323800;28;20230;-65
2021/07/19 03:11:49;;;;;;;9.40;6.77;;;21.70;99.90;;;;;;6323333;28;20234;-64
2021/07/19 03:14:53;;;;;;;10.83;6.73;;;21.70;99.90;;;;;;6323556;28;20268;-65
2021/07/19 03:18:00;;;;;;;7.97;7.17;;;21.60;99.90;;;;;;6323007;28;20234;-65
2021/07/19 03:21:05;;;;;;;8.27;7.37;;;21.60;99.90;;;;;;6323647;28;20556;-65
2021/07/19 03:24:10;;;;;;;8.30;7.10;;;21.50;99.90;;;;;;6326162;28;20230;-65
2021/07/19 03:27:14;;;;;;;7.47;6.77;;;21.50;99.90;;;;;;6327698;28;20248;-62
2021/07/19 03:30:18;;;;;;;7.93;6.90;;;21.50;99.90;;;;;;6327518;28;20230;-62
2021/07/19 03:33:24;;;;;;;7.10;6.40;;;21.50;99.90;;;;;;6327568;28;20583;-62
2021/07/19 03:36:31;;;;;;;8.67;7.17;;;21.40;99.90;;;;;;6322746;28;20238;-64
2021/07/19 03:39:35;;;;;;;8.23;6.70;;;21.30;99.90;;;;;;6327469;28;20672;-65
2021/07/19 03:42:39;;;;;;;7.00;5.97;;;21.30;99.90;;;;;;6327364;28;20231;-64
2021/07/19 03:45:42;;;;;;;6.37;5.70;;;21.30;99.90;;;;;;6327391;28;20291;-60
2021/07/19 03:48:47;;;;;;;6.50;5.70;;;21.40;99.90;;;;;;6327267;28;20228;-60
2021/07/19 03:51:51;;;;;;;6.13;5.53;;;21.50;99.90;;;;;;6327375;28;20230;-60
2021/07/19 03:54:54;;;;;;;6.77;5.43;;;21.50;99.90;;;;;;6327243;28;20238;-70
2021/07/19 03:57:58;;;;;;;6.43;5.77;;;21.60;99.90;;;;;;6327232;28;20230;-70
2021/07/19 04:01:01;;;;;;;6.90;5.70;;;21.60;99.90;;;;;;6327223;28;20241;-71
2021/07/19 04:04:09;;;;;;;6.77;5.30;;;21.70;99.90;;;;;;6326741;28;20250;-65
2021/07/19 04:07:14;;;;;;;6.20;5.60;;;21.80;99.90;;;;;;6327079;28;20226;-62
2021/07/19 04:10:20;;;;;;;6.33;4.97;;;21.80;99.90;;;;;;6327031;28;20580;-69
2021/07/19 04:13:24;;;;;;;7.47;5.03;;;21.90;99.30;;;;;;6326884;28;20691;-69
2021/07/19 04:16:27;;;;;;;6.43;4.60;;;22.00;98.60;;;;;;6326059;28;20238;-70
2021/07/19 04:19:32;;;;;;;6.53;5.77;;;22.20;97.70;;;;;;6326891;28;20226;-61
2021/07/19 04:22:36;;;;;;;6.77;5.17;;;22.30;98.10;;;;;;6326455;28;20234;-60
2021/07/19 04:25:40;;;;;;;7.67;5.87;;;22.40;95.80;;;;;;6326289;28;20245;-60
2021/07/19 04:28:44;;;;;;;9.63;6.40;;;22.50;95.00;;;;;;6326036;28;20229;-60
2021/07/19 04:31:53;;;;;;;6.57;5.80;;;22.70;94.80;;;;;;6326207;28;20694;-60
2021/07/19 04:34:57;;;;;;;7.57;5.83;;;22.80;94.40;;;;;;6325674;28;20234;-64
2021/07/19 04:38:01;;;;;;;7.30;6.60;;;22.80;93.50;;;;;;6326510;28;20206;-68
2021/07/19 04:41:04;;;;;;;6.87;6.17;;;22.90;93.90;;;;;;6316426;28;20279;-62
2021/07/19 04:44:07;;;;;;;9.97;6.40;;;22.90;93.90;;;;;;6326150;28;20226;-69
2021/07/19 04:47:10;;;;;;;8.37;6.13;;;22.90;93.90;;;;;;6325888;28;20234;-68
2021/07/19 04:50:16;;;;;;;7.27;6.20;;;22.80;93.80;;;;;;6325876;28;20648;-69
2021/07/19 04:53:19;;;;;;;8.10;6.40;;;23.00;93.80;;;;;;6325922;28;20222;-68
2021/07/19 04:56:24;;;;;;;7.13;5.80;;;23.10;93.40;;;;;;6325086;28;20245;-62
2021/07/19 04:59:30;;;;;;;7.47;6.53;;;23.20;93.80;;;;;;6324088;28;20245;-62
2021/07/19 05:02:36;;;;;;;8.87;7.07;;;23.30;93.80;;;;;;6323269;28;20233;-60
2021/07/19 05:05:41;;;;;;;8.57;6.80;;;23.60;93.60;;;;;;6323317;28;20237;-61
2021/07/19 05:08:47;;;;;;;6.07;5.47;;;23.70;92.70;;;;;;6323186;28;20233;-60
2021/07/19 05:11:51;;;;;;;7.77;6.03;;;23.80;92.50;;;;;;6324637;28;20676;-60
2021/07/19 05:14:55;;;;;;;7.53;6.73;;;23.90;92.40;;;;;;6324604;28;20705;-60
2021/07/19 05:17:59;;;;;;;8.30;6.80;;;23.70;91.90;;;;;;6325231;28;20241;-60
2021/07/19 05:21:04;;;;;;;7.80;6.27;;;23.70;92.50;;;;;;6322883;28;20245;-59
2021/07/19 05:24:07;;;;;;;7.23;6.60;;;23.70;92.70;;;;;;6323002;28;20234;-59
2021/07/19 05:27:12;;;;;;;8.43;6.27;;;23.70;92.80;;;;;;6322597;28;20233;-59
2021/07/19 05:30:16;;;;;;;8.63;6.47;;;23.70;93.10;;;;;;6322594;28;20632;-60
2021/07/19 05:33:20;;;;;;;7.90;5.70;;;23.70;93.00;;;;;;6322686;28;20249;-60
2021/07/19 05:36:25;;;;;;;7.30;5.90;;;23.80;92.70;;;;;;6324729;28;20246;-61
2021/07/19 05:39:28;;;;;;;10.97;8.30;;;24.00;92.10;;;;;;6325430;28;20226;-61
2021/07/19 05:42:31;;;;;;;17.60;15.80;;;24.30;92.20;;;;;;6324716;28;20545;-61
2021/07/19 05:45:34;;;;;;;9.30;8.10;;;24.60;91.70;;;;;;6314785;28;20244;-61
2021/07/19 05:48:38;;;;;;;9.77;6.77;;;24.80;92.00;;;;;;6324696;28;20234;-62
2021/07/19 05:51:42;;;;;;;12.20;7.60;;;25.00;90.80;;;;;;6324652;28;20234;-62
2021/07/19 05:54:45;;;;;;;8.77;6.27;;;25.20;89.30;;;;;;6324349;28;20241;-62
2021/07/19 05:57:49;;;;;;;8.40;6.53;;;25.30;87.10;;;;;;6324296;28;20568;-62
2021/07/19 06:00:52;;;;;;;9.83;6.33;;;25.30;85.70;;;;;;6323780;28;20256;-62
2021/07/19 06:03:55;;;;;;;13.17;6.80;;;25.30;85.20;;;;;;6324513;28;20233;-62
2021/07/19 06:07:00;;;;;;;6.23;5.63;;;25.40;84.60;;;;;;6324444;28;20574;-61
2021/07/19 06:10:06;;;;;;;7.43;5.20;;;25.60;81.10;;;;;;6324326;28;20221;-61
2021/07/19 06:13:10;;;;;;;10.33;6.60;;;25.70;82.90;;;;;;6323927;28;20690;-62
2021/07/19 06:16:14;;;;;;;8.63;5.77;;;25.80;83.10;;;;;;6323787;28;20683;-62
2021/07/19 06:19:17;;;;;;;22.37;14.27;;;25.90;82.00;;;;;;6323972;28;20226;-62
2021/07/19 06:22:21;;;;;;;8.03;7.17;;;25.90;81.40;;;;;;6324530;28;20233;-62
2021/07/19 06:25:24;;;;;;;15.57;11.07;;;25.90;79.70;;;;;;6324011;28;20236;-62
2021/07/19 06:28:28;;;;;;;15.43;9.87;;;25.80;80.00;;;;;;6323795;28;20236;-62
2021/07/19 06:31:31;;;;;;;12.50;6.80;;;25.90;80.80;;;;;;6323894;28;20268;-62
2021/07/19 06:34:34;;;;;;;8.67;6.47;;;25.90;80.50;;;;;;6323769;28;20241;-62
2021/07/19 06:37:39;;;;;;;11.07;6.10;;;26.00;80.10;;;;;;6323935;28;20691;-62
2021/07/19 06:40:42;;;;;;;8.93;6.83;;;26.20;80.10;;;;;;6323530;28;20249;-62
2021/07/19 06:43:45;;;;;;;9.47;5.80;;;26.40;80.50;;;;;;6323890;28;20225;-62
2021/07/19 06:46:48;;;;;;;7.00;5.97;;;27.20;79.40;;;;;;6323272;28;20576;-62
2021/07/19 06:49:51;;;;;;;11.10;6.10;;;28.80;73.20;;;;;;6323465;28;20555;-63
2021/07/19 06:52:56;;;;;;;8.80;5.80;;;29.60;67.30;;;;;;6323487;28;20213;-63
2021/07/19 06:55:59;;;;;;;14.23;6.13;;;30.50;63.30;;;;;;6323710;28;20217;-64
2021/07/19 06:59:02;;;;;;;9.23;5.50;;;30.80;60.10;;;;;;6328175;28;20580;-62
2021/07/19 07:02:05;;;;;;;8.80;5.72;;;31.20;58.80;;;;;;6328803;28;20233;-64
2021/07/19 07:05:10;;;;;;;5.97;4.95;;;32.10;57.00;;;;;;6328711;28;20302;-66
2021/07/19 07:08:14;;;;;;;12.88;5.25;;;33.00;54.50;;;;;;6328467;28;20229;-68
2021/07/19 07:11:18;;;;;;;6.22;5.05;;;33.60;52.40;;;;;;6328152;28;20652;-68
2021/07/19 07:14:21;;;;;;;6.78;4.72;;;34.00;48.90;;;;;;6327664;28;20232;-63
2021/07/19 07:17:24;;;;;;;5.28;4.60;;;34.00;48.80;;;;;;6328031;28;20229;-62
2021/07/19 07:20:27;;;;;;;6.07;3.97;;;34.30;48.20;;;;;;6327845;28;20236;-62
2021/07/19 07:23:32;;;;;;;6.65;4.80;;;34.00;47.40;;;;;;6328087;28;20229;-62
2021/07/19 07:26:35;;;;;;;7.15;4.82;;;33.80;47.00;;;;;;6327902;28;20249;-61
2021/07/19 07:29:39;;;;;;;6.78;4.57;;;34.00;46.30;;;;;;6328022;28;20234;-61
2021/07/19 07:32:43;;;;;;;7.70;5.07;;;33.60;46.70;;;;;;6327537;28;20222;-61
2021/07/19 07:35:46;;;;;;;9.02;5.38;;;32.80;47.40;;;;;;6327890;28;20666;-61
2021/07/19 07:38:51;;;;;;;10.77;5.15;;;32.70;48.30;;;;;;6327565;28;20533;-61
2021/07/19 07:41:54;;;;;;;8.70;4.70;;;33.10;48.30;;;;;;6327758;28;20233;-69
2021/07/19 07:44:57;;;;;;;8.73;4.70;;;33.20;47.30;;;;;;6327005;28;20247;-67
2021/07/19 07:48:01;;;;;;;9.90;5.22;;;33.50;46.30;;;;;;6327678;28;20298;-68
2021/07/19 07:51:04;;;;;;;7.47;4.93;;;33.60;46.70;;;;;;6322736;28;20691;-67
2021/07/19 07:54:11;;;;;;;11.32;5.05;;;33.20;46.50;;;;;;6327283;28;20225;-67
2021/07/19 07:57:14;;;;;;;7.18;4.50;;;33.00;48.10;;;;;;6326741;28;20228;-67
2021/07/19 08:00:20;;;;;;;9.30;4.30;;;34.80;46.00;;;;;;6333208;28;20213;-68
2021/07/19 08:03:23;;;;;;;5.43;4.30;;;36.40;42.50;;;;;;6337271;28;20233;-68
2021/07/19 08:06:27;;;;;;;4.72;3.55;;;37.90;40.30;;;;;;6323994;28;20229;-68
2021/07/19 08:09:31;;;;;;;7.53;3.65;;;38.10;39.40;;;;;;6325774;28;20240;-68
2021/07/19 08:12:35;;;;;;;9.07;5.13;;;38.60;38.60;;;;;;6326479;28;20237;-64
2021/07/19 08:15:39;;;;;;;7.40;3.83;;;37.90;37.30;;;;;;6340380;28;20236;-62
2021/07/19 08:18:42;;;;;;;7.22;4.57;;;37.30;38.70;;;;;;6334919;28;20229;-62
2021/07/19 08:21:45;;;;;;;7.28;4.82;;;37.00;39.70;;;;;;6325829;28;20218;-66
2021/07/19 08:24:50;;;;;;;7.13;3.65;;;37.00;40.00;;;;;;6325319;28;20560;-66
2021/07/19 08:27:53;;;;;;;8.50;4.43;;;36.80;39.50;;;;;;6324363;28;20221;-66
2021/07/19 08:30:57;;;;;;;8.18;4.55;;;36.20;39.80;;;;;;6342515;28;20267;-66
2021/07/19 08:34:00;;;;;;;8.70;4.63;;;35.60;40.60;;;;;;6328547;27;20232;-61
2021/07/19 08:37:04;;;;;;;7.50;3.83;;;35.30;41.00;;;;;;6325090;28;20214;-60
2021/07/19 08:40:10;;;;;;;8.65;4.53;;;35.00;41.00;;;;;;6324773;28;20244;-68
2021/07/19 08:43:13;;;;;;;8.75;3.88;;;34.70;41.90;;;;;;6324809;28;20566;-67
2021/07/19 08:46:17;;;;;;;6.78;4.20;;;34.30;41.30;;;;;;6325152;28;20237;-67
2021/07/19 08:49:26;;;;;;;7.45;3.88;;;34.10;42.10;;;;;;6347303;28;20225;-68
2021/07/19 08:52:30;;;;;;;9.23;3.95;;;33.70;41.70;;;;;;6328505;27;20226;-70
2021/07/19 08:55:35;;;;;;;6.38;3.45;;;33.20;41.60;;;;;;6325076;28;20245;-68
2021/07/19 08:58:38;;;;;;;5.85;4.32;;;33.00;43.10;;;;;;6311927;28;20236;-69
2021/07/19 09:01:42;;;;;;;6.00;3.80;;;32.80;43.50;;;;;;6323727;28;20232;-68
2021/07/19 09:04:45;;;;;;;8.98;4.25;;;32.60;43.40;;;;;;6349760;28;20243;-68
2021/07/19 09:07:50;;;;;;;10.45;4.40;;;32.40;43.80;;;;;;6317712;27;20237;-68
2021/07/19 09:10:55;;;;;;;4.55;3.25;;;31.90;45.00;;;;;;6300560;28;20218;-68
2021/07/19 09:14:02;;;;;;;4.95;3.60;;;32.00;45.40;;;;;;6332014;28;20284;-68
2021/07/19 09:17:06;;;;;;;5.82;3.47;;;32.00;44.60;;;;;;6349839;28;20635;-68
2021/07/19 09:20:13;;;;;;;7.03;3.42;;;31.70;43.40;;;;;;6349573;28;20280;-68
2021/07/19 09:23:26;;;;;;;4.47;3.75;;;31.50;44.30;;;;;;6349749;28;20221;-68
2021/07/19 09:26:33;;;;;;;7.78;3.78;;;31.40;44.90;;;;;;6349731;28;20285;-68
2021/07/19 09:29:38;;;;;;;10.30;3.70;;;31.50;44.90;;;;;;6349835;27;20224;-69
2021/07/19 09:32:59;;;;;;;7.18;4.03;;;31.60;44.30;;;;;;6350074;28;20240;-68
2021/07/19 09:36:04;;;;;;;9.65;3.25;;;31.50;44.60;;;;;;6348987;28;20572;-68
2021/07/19 09:39:10;;;;;;;11.13;3.97;;;31.20;44.30;;;;;;6349350;28;20221;-68
2021/07/19 09:42:15;;;;;;;5.70;3.47;;;31.00;45.10;;;;;;6349609;28;20228;-68
2021/07/19 09:45:24;;;;;;;4.93;2.70;;;30.70;45.00;;;;;;6349737;27;20239;-71
2021/07/19 09:48:28;;;;;;;4.33;3.10;;;30.60;45.10;;;;;;6349879;27;20705;-71
2021/07/19 09:51:33;;;;;;;6.33;3.63;;;30.70;45.20;;;;;;6347085;27;20704;-66
2021/07/19 09:54:42;;;;;;;5.53;2.58;;;30.70;45.50;;;;;;6349196;27;20233;-72
2021/07/19 09:57:53;;;;;;;2.87;2.57;;;30.90;46.00;;;;;;6349392;27;20225;-69
2021/07/19 10:00:57;;;;;;;5.20;2.50;;;30.90;45.20;;;;;;6340124;28;20290;-69
2021/07/19 10:04:08;;;;;;;5.73;2.77;;;30.90;44.90;;;;;;6349513;27;20237;-69
2021/07/19 10:07:11;;;;;;;6.35;2.83;;;30.70;45.10;;;;;;6349344;27;20701;-68
2021/07/19 10:10:16;;;;;;;6.67;2.50;;;30.60;46.00;;;;;;6349451;28;20566;-68
2021/07/19 10:13:31;;;;;;;4.00;3.10;;;30.50;45.50;;;;;;6349483;28;20212;-70
2021/07/19 10:16:35;;;;;;;8.90;3.23;;;30.40;45.50;;;;;;6347755;28;20240;-70
2021/07/19 10:19:43;;;;;;;4.30;2.70;;;30.30;46.70;;;;;;6349449;28;20727;-71
2021/07/19 10:22:46;;;;;;;5.83;2.97;;;30.40;46.40;;;;;;6349219;28;20231;-73
2021/07/19 10:25:50;;;;;;;3.70;2.83;;;30.60;45.90;;;;;;6348749;28;20686;-68
2021/07/19 10:28:55;;;;;;;2.57;2.37;;;30.70;45.20;;;;;;6349091;28;20231;-70
2021/07/19 10:31:59;;;;;;;4.88;2.78;;;30.80;45.90;;;;;;6350664;28;20215;-67
2021/07/19 10:35:02;;;;;;;4.90;2.75;;;31.10;46.80;;;;;;6353242;28;20309;-67
2021/07/19 10:38:11;;;;;;;4.97;2.90;;;31.50;46.60;;;;;;6352186;28;20208;-68
2021/07/19 10:41:15;;;;;;;5.07;2.53;;;31.80;46.40;;;;;;6352431;28;20704;-68
2021/07/19 10:44:28;;;;;;;4.47;2.60;;;32.00;44.50;;;;;;6352138;27;20229;-68
2021/07/19 10:47:31;;;;;;;2.13;1.92;;;32.00;44.40;;;;;;6352530;28;20225;-67
2021/07/19 10:50:40;;;;;;;5.47;2.85;;;32.10;44.00;;;;;;6353371;28;20581;-68
2021/07/19 10:53:43;;;;;;;4.28;2.92;;;32.10;44.60;;;;;;6354089;28;20220;-68
2021/07/19 10:56:51;;;;;;;4.97;2.70;;;32.00;44.70;;;;;;6353813;27;20239;-69
2021/07/19 11:00:04;;;;;;;4.60;2.75;;;32.00;44.80;;;;;;6353255;28;20578;-68
2021/07/19 11:03:09;;;;;;;4.72;2.85;;;32.10;44.60;;;;;;6348893;27;20243;-69
2021/07/19 11:06:12;;;;;;;3.92;2.53;;;32.10;44.70;;;;;;6353385;27;20668;-68
2021/07/19 11:09:16;;;;;;;7.38;3.35;;;32.20;44.60;;;;;;6353123;28;20298;-68
2021/07/19 11:12:20;;;;;;;3.00;2.70;;;32.40;45.20;;;;;;6352953;28;20225;-68
2021/07/19 11:15:34;;;;;;;4.50;2.80;;;32.50;43.90;;;;;;6352606;28;20239;-68
2021/07/19 11:18:38;;;;;;;4.65;2.35;;;32.40;44.30;;;;;;6353293;28;20578;-69
2021/07/19 11:21:45;;;;;;;4.57;2.90;;;32.40;42.90;;;;;;6353039;28;20566;-69
2021/07/19 11:24:50;;;;;;;5.28;2.35;;;32.40;42.90;;;;;;6353245;28;20240;-68
2021/07/19 11:27:56;;;;;;;5.68;2.83;;;32.30;43.50;;;;;;6353127;28;20225;-68
2021/07/19 11:31:10;;;;;;;3.33;2.50;;;32.20;43.50;;;;;;6353426;28;20742;-68
2021/07/19 11:34:24;;;;;;;4.28;2.40;;;32.20;43.30;;;;;;6353395;28;20220;-68
2021/07/19 11:37:33;;;;;;;4.93;2.53;;;32.20;43.90;;;;;;6353093;28;20232;-69
2021/07/19 11:40:40;;;;;;;6.72;2.58;;;32.50;43.80;;;;;;6352649;28;20232;-69
2021/07/19 11:43:45;;;;;;;5.43;2.42;;;32.60;44.10;;;;;;6351498;28;20725;-70
2021/07/19 11:46:51;;;;;;;4.28;2.83;;;32.60;42.20;;;;;;6352192;28;20229;-70
2021/07/19 11:50:02;;;;;;;5.07;2.60;;;32.60;42.20;;;;;;6352571;27;20209;-66
2021/07/19 11:53:05;;;;;;;4.60;2.60;;;32.40;42.70;;;;;;6347291;28;20209;-65
2021/07/19 11:56:08;;;;;;;3.65;3.08;;;32.30;42.80;;;;;;6351879;28;20221;-67
2021/07/19 11:59:11;;;;;;;5.65;2.50;;;32.20;42.80;;;;;;6352298;28;20220;-65
2021/07/19 12:02:27;;;;;;;5.75;2.55;;;31.90;42.90;;;;;;6350986;28;20225;-67
2021/07/19 12:05:32;;;;;;;7.07;2.85;;;31.80;44.10;;;;;;6351126;27;20568;-68
2021/07/19 12:08:36;;;;;;;4.93;2.55;;;31.70;44.10;;;;;;6347478;28;20603;-69
2021/07/19 12:11:39;;;;;;;3.75;2.50;;;31.70;43.80;;;;;;6352057;28;20228;-69
2021/07/19 12:14:42;;;;;;;5.50;2.95;;;31.50;43.90;;;;;;6351562;28;20248;-69
2021/07/19 12:17:47;;;;;;;6.30;3.08;;;31.40;44.40;;;;;;6351291;27;20682;-68
2021/07/19 12:20:55;;;;;;;7.50;3.10;;;31.20;44.30;;;;;;6351519;27;20570;-67
2021/07/19 12:24:00;;;;;;;3.95;2.80;;;31.10;44.50;;;;;;6351967;27;20239;-69
2021/07/19 12:27:04;;;;;;;4.88;2.75;;;31.10;44.00;;;;;;6351407;27;20236;-68
2021/07/19 12:30:09;;;;;;;4.15;2.80;;;30.90;45.20;;;;;;6351625;27;20229;-68
2021/07/19 12:33:22;;;;;;;2.53;2.22;;;31.00;44.70;;;;;;6351190;27;20682;-68
2021/07/19 12:36:25;;;;;;;7.60;2.60;;;31.10;45.20;;;;;;6351582;28;20248;-66
2021/07/19 12:39:31;;;;;;;4.90;2.97;;;31.00;44.70;;;;;;6351416;27;20229;-65
2021/07/19 12:42:34;;;;;;;3.33;2.42;;;31.10;44.80;;;;;;6351314;28;20311;-68
2021/07/19 12:45:40;;;;;;;5.72;2.90;;;31.10;44.20;;;;;;6350517;28;20260;-68
2021/07/19 12:48:49;;;;;;;4.78;2.53;;;30.90;44.10;;;;;;6350978;28;20229;-69
2021/07/19 12:52:01;;;;;;;5.63;3.40;;;30.80;45.00;;;;;;6350996;28;20226;-68
2021/07/19 12:55:25;;;;;;;3.67;2.60;;;30.70;45.00;;;;;;6350535;27;20689;-71
2021/07/19 12:58:29;;;;;;;7.10;2.93;;;30.80;45.00;;;;;;6350395;28;20236;-69
2021/07/19 13:01:34;;;;;;;7.80;3.00;;;30.70;44.50;;;;;;6334696;28;20221;-69
2021/07/19 13:04:39;;;;;;;3.40;2.53;;;30.70;44.80;;;;;;6336583;28;20232;-71
2021/07/19 13:07:43;;;;;;;4.30;3.10;;;30.70;45.30;;;;;;6350565;28;20225;-68
2021/07/19 13:10:46;;;;;;;3.13;2.50;;;30.60;45.30;;;;;;6350326;27;20233;-65
2021/07/19 13:13:50;;;;;;;6.55;2.78;;;30.80;45.80;;;;;;6341031;27;20245;-69
2021/07/19 13:16:58;;;;;;;3.33;2.85;;;30.90;44.90;;;;;;6349836;27;20567;-67
2021/07/19 13:20:07;;;;;;;5.47;2.70;;;31.00;44.90;;;;;;6350138;27;20201;-68
2021/07/19 13:23:15;;;;;;;4.95;2.33;;;31.10;44.70;;;;;;6349869;28;20212;-68
2021/07/19 13:26:18;;;;;;;3.58;2.70;;;31.10;44.20;;;;;;6350545;28;20233;-66
2021/07/19 13:29:28;;;;;;;7.35;3.10;;;31.20;45.00;;;;;;6350107;28;20277;-66
2021/07/19 13:32:32;;;;;;;5.43;2.65;;;31.20;45.70;;;;;;6350576;28;20240;-64
2021/07/19 13:35:41;;;;;;;6.07;3.10;;;31.10;44.10;;;;;;6349922;28;20236;-68
2021/07/19 13:38:47;;;;;;;10.27;2.85;;;31.10;45.10;;;;;;6350214;27;20221;-67
2021/07/19 13:42:01;;;;;;;5.93;2.75;;;31.00;45.30;;;;;;6350014;27;20232;-69
2021/07/19 13:45:06;;;;;;;5.60;2.83;;;31.10;44.20;;;;;;6349841;27;20228;-65
2021/07/19 13:48:09;;;;;;;5.47;2.83;;;31.00;44.40;;;;;;6349942;27;20240;-67
2021/07/19 13:51:14;;;;;;;4.95;2.65;;;30.90;45.30;;;;;;6349879;27;20658;-65
2021/07/19 13:54:17;;;;;;;5.03;2.83;;;30.80;44.80;;;;;;6349177;27;20611;-69
2021/07/19 13:57:20;;;;;;;6.30;2.60;;;30.60;45.60;;;;;;6348865;28;20581;-68
2021/07/19 14:00:23;;;;;;;7.83;2.97;;;30.50;44.90;;;;;;6342719;28;20222;-66
2021/07/19 14:03:27;;;;;;;4.83;2.67;;;30.40;45.30;;;;;;6324232;28;20252;-66
2021/07/19 14:06:34;;;;;;;6.10;2.73;;;30.50;44.90;;;;;;6323800;28;20230;-71
2021/07/19 14:09:37;;;;;;;9.27;3.20;;;30.60;44.90;;;;;;6347053;27;20244;-69
2021/07/19 14:12:40;;;;;;;6.43;3.00;;;30.60;45.30;;;;;;6349560;28;20232;-74
2021/07/19 14:15:44;;;;;;;3.80;2.67;;;30.60;44.80;;;;;;6344246;28;20232;-72
2021/07/19 14:18:47;;;;;;;5.17;3.07;;;30.70;45.70;;;;;;6348296;27;20692;-71
2021/07/19 14:21:53;;;;;;;5.20;3.50;;;30.80;45.80;;;;;;6347280;28;20559;-69
2021/07/19 14:24:56;;;;;;;7.07;3.47;;;30.70;45.10;;;;;;6347821;27;20235;-69
2021/07/19 14:28:03;;;;;;;7.63;3.10;;;30.60;44.90;;;;;;6347603;28;20278;-71
2021/07/19 14:31:06;;;;;;;7.70;3.20;;;30.50;45.00;;;;;;6347657;28;20233;-69
2021/07/19 14:34:09;;;;;;;5.47;2.60;;;30.40;44.80;;;;;;6348517;28;20672;-68
2021/07/19 14:37:14;;;;;;;7.67;3.33;;;30.40;45.20;;;;;;6348984;28;20235;-68
2021/07/19 14:40:19;;;;;;;6.40;3.57;;;30.40;44.70;;;;;;6348915;28;20228;-68
2021/07/19 14:47:39;;;;;;;4.00;2.93;;;30.50;45.50;;;;;;6316914;28;20226;-65
2021/07/19 14:50:43;;;;;;;6.18;3.00;;;30.50;45.00;;;;;;6323473;28;20217;-65
2021/07/19 14:53:50;;;;;;;7.50;3.73;;;30.60;44.90;;;;;;6311416;28;20241;-62
2021/07/19 14:56:54;;;;;;;5.00;2.93;;;30.60;44.50;;;;;;6297732;28;20718;-63
2021/07/19 14:59:57;;;;;;;9.00;2.72;;;30.60;44.60;;;;;;6297532;28;20287;-63
2021/07/19 15:03:00;;;;;;;5.40;3.40;;;30.60;44.70;;;;;;6298208;28;20324;-64
2021/07/19 15:06:03;;;;;;;7.03;3.43;;;30.60;45.20;;;;;;6297137;28;20231;-64
2021/07/19 15:09:08;;;;;;;5.37;3.00;;;30.60;45.70;;;;;;6298211;28;20234;-63
2021/07/19 15:12:11;;;;;;;9.33;3.10;;;30.70;45.20;;;;;;6297851;28;20241;-63
2021/07/19 15:15:14;;;;;;;6.93;3.30;;;30.80;44.90;;;;;;6298126;28;20226;-62
2021/07/19 15:18:18;;;;;;;9.10;3.80;;;30.80;44.90;;;;;;6318550;28;20240;-63
2021/07/19 15:21:21;;;;;;;8.95;3.45;;;30.80;44.60;;;;;;6327645;28;20221;-62
2021/07/19 15:24:26;;;;;;;5.83;3.47;;;30.80;45.00;;;;;;6327426;28;20247;-63
2021/07/19 15:27:29;;;;;;;6.37;3.30;;;30.80;44.10;;;;;;6320732;28;20237;-62
2021/07/19 15:30:32;;;;;;;5.00;2.90;;;30.80;44.10;;;;;;6301850;28;20218;-70
2021/07/19 15:33:35;;;;;;;7.33;2.90;;;30.80;44.20;;;;;;6302156;28;20230;-68
2021/07/19 15:36:38;;;;;;;10.25;4.15;;;30.70;44.50;;;;;;6302113;28;20226;-62
2021/07/19 15:39:43;;;;;;;7.13;3.43;;;30.70;44.10;;;;;;6302235;28;20222;-63
2021/07/19 15:42:47;;;;;;;6.90;2.87;;;30.60;43.90;;;;;;6301907;28;20230;-64
2021/07/19 15:45:50;;;;;;;7.60;3.30;;;30.60;46.10;;;;;;6301398;28;20679;-64
2021/07/19 15:48:53;;;;;;;5.10;3.10;;;30.70;45.60;;;;;;6301625;28;20237;-64
2021/07/19 15:51:57;;;;;;;10.97;4.03;;;30.70;45.50;;;;;;6301103;28;20667;-64
2021/07/19 15:55:01;;;;;;;5.87;2.43;;;30.60;44.60;;;;;;6301742;28;20230;-63
2021/07/19 15:58:04;;;;;;;6.10;3.50;;;30.70;44.70;;;;;;6301312;28;20234;-63
2021/07/19 16:01:08;;;;;;;6.17;3.50;;;30.70;45.10;;;;;;6301663;28;20230;-63
2021/07/19 16:04:11;;;;;;;5.23;3.27;;;30.70;45.10;;;;;;6301421;28;20234;-64